Time;durP1;ratioP1;P1;durP2;ratioP2;P2;SDS_P1;SDS_P2;PMS_P1;PMS_P2;Temp;Humidity;BMP_temperature;BMP_pressure;BME280_temperature;BME280_humidity;BME280_pressure;Samples;Min_cycle;Max_cycle;Signal;HPM_P1;HPM_P2
2024/03/01 00:01:54;;;;;;;12.15;3.60;;;28.50;43.70;;;;;;5092411;28;20072;-54
2024/03/01 00:04:20;;;;;;;5.28;2.33;;;28.70;43.60;;;;;;5092547;28;20075;-53
2024/03/01 00:06:47;;;;;;;8.00;1.30;;;28.50;43.80;;;;;;5092855;28;20152;-50
2024/03/01 00:09:13;;;;;;;11.20;2.00;;;28.60;44.30;;;;;;5104833;28;20068;-50
2024/03/01 00:11:40;;;;;;;8.70;1.52;;;28.70;44.30;;;;;;5109849;28;20540;-57
2024/03/01 00:14:06;;;;;;;9.63;1.88;;;28.70;43.90;;;;;;5112881;28;20072;-50
2024/03/01 00:16:33;;;;;;;6.65;1.30;;;28.50;44.20;;;;;;5109905;28;20453;-50
2024/03/01 00:18:59;;;;;;;8.93;1.80;;;28.50;44.30;;;;;;5110404;28;20132;-52
2024/03/01 00:21:26;;;;;;;9.23;2.00;;;28.40;44.10;;;;;;5110339;28;20072;-51
2024/03/01 00:23:53;;;;;;;19.65;2.45;;;28.10;44.80;;;;;;5110741;28;20080;-54
2024/03/01 00:26:19;;;;;;;8.73;1.83;;;28.00;44.50;;;;;;5110934;28;20092;-51
2024/03/01 00:28:46;;;;;;;8.68;1.40;;;28.00;44.40;;;;;;5111743;28;20072;-50
2024/03/01 00:31:13;;;;;;;7.28;1.70;;;27.90;44.80;;;;;;5112441;28;20064;-49
2024/03/01 00:33:39;;;;;;;13.73;2.20;;;27.60;45.50;;;;;;5112458;28;20437;-49
2024/03/01 00:36:06;;;;;;;6.82;1.88;;;27.40;47.20;;;;;;5112395;28;20056;-50
2024/03/01 00:38:32;;;;;;;9.88;2.33;;;27.20;47.50;;;;;;5112622;28;20095;-50
2024/03/01 00:40:59;;;;;;;10.73;2.97;;;27.00;47.70;;;;;;5101587;28;20072;-51
2024/03/01 00:43:25;;;;;;;5.75;2.90;;;26.80;46.60;;;;;;5112255;28;20125;-52
2024/03/01 00:45:52;;;;;;;10.65;2.75;;;26.80;46.40;;;;;;5111309;28;20421;-50
2024/03/01 00:48:18;;;;;;;9.95;1.98;;;26.60;45.90;;;;;;5110553;28;20374;-54
2024/03/01 00:50:45;;;;;;;9.52;2.22;;;26.50;46.40;;;;;;5108645;28;20068;-53
2024/03/01 00:53:11;;;;;;;11.52;1.95;;;26.40;46.50;;;;;;5106876;28;20088;-52
2024/03/01 00:55:38;;;;;;;8.90;1.30;;;26.30;45.90;;;;;;5109855;28;20197;-49
2024/03/01 00:58:05;;;;;;;3.97;1.38;;;26.10;45.40;;;;;;5103314;28;20583;-49
2024/03/01 01:00:31;;;;;;;12.07;1.75;;;26.00;45.00;;;;;;5103962;28;20104;-53
2024/03/01 01:02:58;;;;;;;6.85;1.98;;;26.00;44.90;;;;;;5099883;28;20070;-51
2024/03/01 01:05:24;;;;;;;8.80;1.20;;;25.80;44.80;;;;;;5108321;28;20208;-50
2024/03/01 01:07:51;;;;;;;14.77;1.90;;;25.60;45.30;;;;;;5097906;28;20072;-50
2024/03/01 01:10:18;;;;;;;10.85;1.35;;;25.50;46.00;;;;;;5106186;28;20076;-52
2024/03/01 01:12:44;;;;;;;8.75;1.10;;;25.40;46.50;;;;;;5106362;28;20158;-51
2024/03/01 01:15:11;;;;;;;14.95;1.70;;;25.20;46.90;;;;;;5101408;28;20100;-52
2024/03/01 01:17:37;;;;;;;9.50;1.63;;;25.10;47.00;;;;;;5111876;28;20193;-50
2024/03/01 01:20:04;;;;;;;10.10;2.13;;;25.10;46.70;;;;;;5109948;28;20133;-53
2024/03/01 01:22:32;;;;;;;4.88;1.60;;;25.00;46.10;;;;;;5109446;28;20064;-54
2024/03/01 01:24:58;;;;;;;7.07;2.08;;;24.90;46.20;;;;;;5109257;28;20127;-51
2024/03/01 01:27:25;;;;;;;8.38;2.05;;;24.80;46.10;;;;;;5112322;28;20079;-48
2024/03/01 01:29:51;;;;;;;13.32;2.30;;;24.70;46.30;;;;;;5112046;28;20060;-48
2024/03/01 01:32:18;;;;;;;4.53;1.50;;;24.70;46.60;;;;;;5109147;28;20064;-60
2024/03/01 01:34:44;;;;;;;13.25;2.05;;;24.60;47.30;;;;;;5109403;28;20151;-50
2024/03/01 01:37:11;;;;;;;10.88;1.63;;;24.50;47.60;;;;;;5107198;28;20125;-51
2024/03/01 01:39:37;;;;;;;13.88;2.00;;;24.40;47.70;;;;;;5111687;28;20110;-50
2024/03/01 01:42:04;;;;;;;6.43;1.50;;;24.30;48.30;;;;;;5107784;28;20421;-50
2024/03/01 01:44:30;;;;;;;6.53;1.52;;;24.20;48.30;;;;;;5112291;28;20113;-52
2024/03/01 01:46:57;;;;;;;7.32;1.90;;;24.20;48.40;;;;;;5109507;28;20525;-48
2024/03/01 01:49:26;;;;;;;5.97;1.67;;;24.00;48.40;;;;;;5112010;28;20144;-50
2024/03/01 01:51:53;;;;;;;7.65;1.67;;;23.90;48.70;;;;;;5109245;28;20068;-49
2024/03/01 01:54:19;;;;;;;10.65;2.05;;;23.90;49.20;;;;;;5099107;28;20151;-48
2024/03/01 01:56:49;;;;;;;11.77;2.03;;;23.80;49.40;;;;;;5097111;28;20567;-52
2024/03/01 01:59:16;;;;;;;14.25;1.90;;;23.70;49.70;;;;;;5109378;28;20606;-51
2024/03/01 02:01:44;;;;;;;10.45;1.80;;;23.70;49.80;;;;;;5111942;28;20108;-50
2024/03/01 02:04:10;;;;;;;6.80;1.90;;;23.60;50.00;;;;;;5111664;28;20065;-48
2024/03/01 02:06:37;;;;;;;10.02;2.22;;;23.50;50.30;;;;;;5108083;28;20517;-52
2024/03/01 02:09:12;;;;;;;15.25;2.20;;;23.50;50.70;;;;;;5109645;28;20071;-50
2024/03/01 02:11:40;;;;;;;7.00;1.60;;;23.50;50.80;;;;;;5109447;28;20473;-49
2024/03/01 02:14:06;;;;;;;6.30;1.77;;;23.40;51.30;;;;;;5109726;28;20082;-50
2024/03/01 02:16:33;;;;;;;10.73;1.55;;;23.30;51.70;;;;;;5111808;28;20464;-49
2024/03/01 02:19:00;;;;;;;13.50;1.65;;;23.30;52.10;;;;;;5114945;28;20106;-50
2024/03/01 02:21:33;;;;;;;18.00;2.25;;;23.30;52.30;;;;;;5112568;27;20068;-49
2024/03/01 02:23:59;;;;;;;8.90;2.00;;;23.30;52.50;;;;;;5111493;28;20402;-48
2024/03/01 02:26:26;;;;;;;14.18;2.55;;;23.30;53.40;;;;;;5112163;28;20129;-49
2024/03/01 02:28:52;;;;;;;9.13;2.33;;;23.20;52.90;;;;;;5114253;28;20158;-49
2024/03/01 02:31:21;;;;;;;14.93;3.13;;;23.10;52.90;;;;;;5094445;28;20083;-51
2024/03/01 02:33:47;;;;;;;12.00;2.97;;;23.10;53.10;;;;;;5107028;28;20502;-50
2024/03/01 02:36:14;;;;;;;16.92;3.40;;;22.90;53.60;;;;;;5106192;28;20151;-49
2024/03/01 02:38:41;;;;;;;13.52;3.45;;;22.80;54.10;;;;;;5114851;28;20102;-52
2024/03/01 02:41:07;;;;;;;12.68;2.85;;;22.70;54.00;;;;;;5115263;28;20060;-53
2024/03/01 02:43:33;;;;;;;13.55;3.08;;;22.60;54.10;;;;;;5112410;28;20156;-53
2024/03/01 02:46:00;;;;;;;14.80;3.13;;;22.50;54.80;;;;;;5109019;28;20073;-49
2024/03/01 02:48:26;;;;;;;19.45;3.53;;;22.40;54.10;;;;;;5105891;28;20076;-49
2024/03/01 02:50:53;;;;;;;14.82;3.17;;;22.40;54.50;;;;;;5115096;28;20116;-53
2024/03/01 02:53:19;;;;;;;15.82;3.45;;;22.40;54.60;;;;;;5105543;28;20108;-49
2024/03/01 02:55:46;;;;;;;10.85;2.78;;;22.20;55.40;;;;;;5093479;28;20625;-49
2024/03/01 02:58:12;;;;;;;25.02;3.03;;;22.10;55.40;;;;;;5091616;28;20096;-49
2024/03/01 03:00:39;;;;;;;14.00;3.10;;;22.20;55.90;;;;;;5092322;28;20072;-50
2024/03/01 03:03:05;;;;;;;27.80;3.72;;;22.10;56.60;;;;;;5095512;28;20587;-50
2024/03/01 03:05:32;;;;;;;19.02;3.40;;;22.00;56.90;;;;;;5114203;28;20064;-49
2024/03/01 03:07:58;;;;;;;17.92;3.15;;;22.00;57.40;;;;;;5111814;28;20068;-50
2024/03/01 03:10:25;;;;;;;24.40;5.90;;;21.90;57.50;;;;;;5114379;28;20064;-49
2024/03/01 03:12:51;;;;;;;19.20;5.38;;;21.90;57.90;;;;;;5114337;28;20057;-50
2024/03/01 03:15:18;;;;;;;23.67;4.80;;;21.90;57.90;;;;;;5114032;28;20064;-53
2024/03/01 03:17:45;;;;;;;16.70;4.35;;;21.90;58.30;;;;;;5110943;28;20122;-53
2024/03/01 03:20:11;;;;;;;25.55;4.53;;;21.80;58.90;;;;;;5113910;28;20514;-54
2024/03/01 03:22:44;;;;;;;21.60;5.78;;;21.70;59.60;;;;;;5114192;28;20468;-49
2024/03/01 03:25:14;;;;;;;16.38;6.55;;;21.70;59.60;;;;;;5107257;28;20071;-58
2024/03/01 03:27:41;;;;;;;23.00;5.22;;;21.60;59.70;;;;;;5111754;27;20164;-51
2024/03/01 03:30:08;;;;;;;28.20;5.65;;;21.50;60.70;;;;;;5104532;28;20080;-48
2024/03/01 03:32:35;;;;;;;28.17;4.53;;;21.40;60.80;;;;;;5092245;28;20383;-50
2024/03/01 03:35:03;;;;;;;17.15;4.57;;;21.40;61.10;;;;;;5093504;28;20102;-47
2024/03/01 03:37:30;;;;;;;22.55;4.55;;;21.30;61.10;;;;;;5092755;28;20101;-48
2024/03/01 03:39:56;;;;;;;28.35;4.43;;;21.20;61.80;;;;;;5093355;28;20182;-49
2024/03/01 03:42:23;;;;;;;19.63;4.57;;;21.20;62.90;;;;;;5093700;28;20068;-49
2024/03/01 03:44:49;;;;;;;9.70;3.50;;;21.20;63.60;;;;;;5097395;28;20083;-51
2024/03/01 03:47:15;;;;;;;13.98;3.90;;;21.10;64.70;;;;;;5108116;28;20080;-46
2024/03/01 03:49:45;;;;;;;17.75;4.38;;;21.10;65.30;;;;;;5107980;28;20100;-48
2024/03/01 03:52:12;;;;;;;13.60;3.88;;;21.00;66.10;;;;;;5101250;28;20164;-48
2024/03/01 03:54:39;;;;;;;15.43;4.63;;;20.90;66.30;;;;;;5096244;28;20079;-49
2024/03/01 03:57:05;;;;;;;20.35;6.20;;;20.90;66.50;;;;;;5099032;28;20101;-56
2024/03/01 03:59:32;;;;;;;23.60;6.25;;;20.80;66.50;;;;;;5109001;28;20076;-51
2024/03/01 04:01:58;;;;;;;17.38;5.65;;;20.70;67.90;;;;;;5109492;28;20078;-51
2024/03/01 04:04:25;;;;;;;26.33;5.10;;;20.70;68.20;;;;;;5105129;28;20183;-50
2024/03/01 04:06:51;;;;;;;19.70;5.13;;;20.70;68.70;;;;;;5107809;28;20068;-49
2024/03/01 04:09:18;;;;;;;21.02;4.47;;;20.60;68.70;;;;;;5104212;28;20112;-50
2024/03/01 04:11:44;;;;;;;15.00;3.80;;;20.70;69.20;;;;;;5110132;28;20579;-49
2024/03/01 04:14:11;;;;;;;14.82;3.97;;;20.50;69.90;;;;;;5108052;28;20075;-48
2024/03/01 04:16:37;;;;;;;25.27;3.25;;;20.40;70.50;;;;;;5109982;28;20107;-48
2024/03/01 04:19:08;;;;;;;16.50;3.42;;;20.40;70.50;;;;;;5108739;28;20107;-48
2024/03/01 04:21:38;;;;;;;16.25;3.50;;;20.30;71.40;;;;;;5109770;28;20083;-47
2024/03/01 04:24:12;;;;;;;14.27;4.30;;;20.20;71.90;;;;;;5104102;28;20087;-52
2024/03/01 04:26:39;;;;;;;15.32;4.43;;;20.20;72.30;;;;;;5109229;28;20113;-47
2024/03/01 04:29:05;;;;;;;14.55;3.78;;;20.10;72.30;;;;;;5109899;28;20470;-48
2024/03/01 04:31:32;;;;;;;15.20;3.28;;;20.10;72.60;;;;;;5105667;28;20092;-47
2024/03/01 04:33:58;;;;;;;12.73;3.30;;;20.00;72.20;;;;;;5107024;28;20437;-48
2024/03/01 04:36:25;;;;;;;10.07;3.20;;;19.90;72.20;;;;;;5092462;28;20071;-48
2024/03/01 04:38:51;;;;;;;8.60;3.30;;;19.90;72.20;;;;;;5110197;28;20084;-48
2024/03/01 04:41:21;;;;;;;9.48;2.95;;;19.80;72.60;;;;;;5103946;28;20095;-48
2024/03/01 04:43:47;;;;;;;13.35;5.35;;;19.80;72.90;;;;;;5107818;28;20159;-47
2024/03/01 04:46:14;;;;;;;15.57;4.00;;;19.60;73.90;;;;;;5109016;28;20072;-47
2024/03/01 04:48:40;;;;;;;13.23;4.47;;;19.50;75.00;;;;;;5095053;28;20399;-49
2024/03/01 04:51:12;;;;;;;13.63;3.63;;;19.40;75.50;;;;;;5112265;27;20068;-59
2024/03/01 04:53:39;;;;;;;11.98;3.90;;;19.30;76.40;;;;;;5103988;27;20076;-48
2024/03/01 04:56:09;;;;;;;13.85;3.85;;;19.20;77.20;;;;;;5107961;27;20065;-46
2024/03/01 04:58:36;;;;;;;18.52;4.07;;;19.10;78.00;;;;;;5100008;27;20111;-50
2024/03/01 05:01:04;;;;;;;13.95;3.95;;;19.00;78.30;;;;;;5101983;27;20079;-48
2024/03/01 05:03:31;;;;;;;12.23;4.50;;;19.00;78.90;;;;;;5108081;27;20441;-48
2024/03/01 05:05:58;;;;;;;15.13;3.60;;;19.00;79.20;;;;;;5106792;27;20072;-48
2024/03/01 05:08:25;;;;;;;11.23;3.78;;;19.10;79.20;;;;;;5119422;27;20541;-47
2024/03/01 05:10:52;;;;;;;13.90;4.18;;;19.10;79.50;;;;;;5093833;28;20155;-47
2024/03/01 05:13:19;;;;;;;22.23;4.20;;;19.00;79.70;;;;;;5098844;28;20072;-54
2024/03/01 05:15:46;;;;;;;37.13;5.47;;;18.90;80.10;;;;;;5112423;28;20052;-51
2024/03/01 05:18:13;;;;;;;40.95;5.75;;;18.90;80.50;;;;;;5092247;28;20164;-53
2024/03/01 05:20:40;;;;;;;54.28;6.18;;;18.90;80.30;;;;;;5104237;28;20088;-51
2024/03/01 05:23:07;;;;;;;28.60;4.70;;;18.90;80.50;;;;;;5109081;28;20076;-61
2024/03/01 05:25:34;;;;;;;27.08;4.68;;;18.90;80.60;;;;;;5110978;28;20096;-50
2024/03/01 05:28:00;;;;;;;14.80;3.95;;;18.80;81.20;;;;;;5116882;28;20099;-52
2024/03/01 05:30:27;;;;;;;16.70;4.78;;;18.60;81.80;;;;;;5114219;28;20079;-49
2024/03/01 05:32:55;;;;;;;11.65;5.38;;;18.50;82.50;;;;;;5109692;28;20073;-51
2024/03/01 05:35:22;;;;;;;18.63;4.97;;;18.50;83.10;;;;;;5110409;28;20132;-51
2024/03/01 05:37:48;;;;;;;16.50;4.65;;;18.50;83.40;;;;;;5110111;28;20104;-49
2024/03/01 05:40:15;;;;;;;15.73;4.07;;;18.40;83.50;;;;;;5105962;28;20073;-50
2024/03/01 05:42:43;;;;;;;18.98;4.80;;;18.40;83.90;;;;;;5097862;28;20206;-52
2024/03/01 05:45:11;;;;;;;22.85;5.00;;;18.40;83.80;;;;;;5098167;28;20096;-49
2024/03/01 05:47:39;;;;;;;13.57;4.28;;;18.40;84.00;;;;;;5092262;28;20087;-52
2024/03/01 05:50:07;;;;;;;26.50;5.05;;;18.30;84.50;;;;;;5097425;28;20076;-51
2024/03/01 05:52:35;;;;;;;16.38;4.68;;;18.20;85.20;;;;;;5109528;27;21159;-50
2024/03/01 05:55:08;;;;;;;18.70;4.82;;;18.20;85.60;;;;;;5111044;28;20068;-50
2024/03/01 05:57:37;;;;;;;15.80;4.57;;;18.30;85.60;;;;;;5115465;28;20102;-51
2024/03/01 06:00:39;;;;;;;28.08;9.02;;;18.20;85.90;;;;;;5111508;28;20112;-50
2024/03/01 06:02:56;;;;;;;27.95;10.45;;;18.10;86.50;;;;;;5110936;28;20092;-53
2024/03/01 06:05:23;;;;;;;26.98;8.88;;;18.10;86.80;;;;;;5106047;27;20163;-58
2024/03/01 06:07:49;;;;;;;26.80;8.00;;;18.10;86.60;;;;;;5100437;27;20099;-48
2024/03/01 06:10:17;;;;;;;19.10;8.25;;;18.10;86.30;;;;;;5116205;27;20076;-47
2024/03/01 06:12:43;;;;;;;33.03;8.30;;;18.00;87.00;;;;;;5125009;27;20106;-53
2024/03/01 06:15:10;;;;;;;26.52;8.13;;;18.10;87.30;;;;;;5127615;27;20071;-51
2024/03/01 06:17:37;;;;;;;22.73;7.65;;;18.00;87.10;;;;;;5110068;27;20123;-48
2024/03/01 06:20:04;;;;;;;28.60;8.70;;;18.00;87.80;;;;;;5113399;28;20080;-47
2024/03/01 06:22:31;;;;;;;25.30;10.70;;;18.00;87.70;;;;;;5108894;27;20076;-52
2024/03/01 06:24:57;;;;;;;31.88;10.65;;;17.90;88.40;;;;;;5110428;27;20146;-48
2024/03/01 06:27:24;;;;;;;27.25;10.77;;;17.90;88.20;;;;;;5097632;28;20141;-48
2024/03/01 06:29:51;;;;;;;26.77;11.00;;;17.90;88.60;;;;;;5108072;27;20070;-51
2024/03/01 06:32:17;;;;;;;30.52;9.88;;;17.80;89.20;;;;;;5100701;27;20111;-51
2024/03/01 06:34:46;;;;;;;54.47;41.20;;;17.90;89.10;;;;;;5106839;27;20083;-65
2024/03/01 06:37:13;;;;;;;127.93;99.85;;;17.90;90.20;;;;;;5103291;27;20090;-52
2024/03/01 06:39:41;;;;;;;34.50;18.35;;;17.80;89.80;;;;;;5113677;27;20063;-54
2024/03/01 06:42:07;;;;;;;32.42;16.88;;;17.70;90.00;;;;;;5099334;27;20084;-50
2024/03/01 06:44:34;;;;;;;29.13;9.75;;;17.70;90.00;;;;;;5121164;27;20072;-53
2024/03/01 06:47:00;;;;;;;21.75;6.45;;;17.70;90.20;;;;;;5119605;27;20072;-53
2024/03/01 06:49:27;;;;;;;24.90;5.20;;;17.60;90.50;;;;;;5097304;27;20075;-53
2024/03/01 06:51:53;;;;;;;31.55;5.65;;;17.60;90.60;;;;;;5099315;27;20455;-50
2024/03/01 06:54:20;;;;;;;29.83;5.55;;;17.50;90.70;;;;;;5096506;27;20507;-52
2024/03/01 06:56:46;;;;;;;17.20;4.93;;;17.50;90.70;;;;;;5107674;27;20074;-55
2024/03/01 06:59:14;;;;;;;20.50;5.47;;;17.50;90.70;;;;;;5117431;27;20195;-50
2024/03/01 07:01:41;;;;;;;13.68;5.65;;;17.40;90.60;;;;;;5116280;27;20075;-52
2024/03/01 07:04:07;;;;;;;21.20;5.72;;;17.40;90.70;;;;;;5095547;27;20096;-53
2024/03/01 07:06:34;;;;;;;22.90;5.68;;;17.40;90.90;;;;;;5092992;28;20068;-51
2024/03/01 07:09:01;;;;;;;45.28;20.50;;;17.40;90.90;;;;;;5110350;27;20513;-50
2024/03/01 07:11:28;;;;;;;46.72;5.35;;;17.30;90.90;;;;;;5104453;27;20433;-50
2024/03/01 07:13:55;;;;;;;26.13;5.03;;;17.30;91.00;;;;;;5091762;27;20080;-55
2024/03/01 07:16:22;;;;;;;24.13;4.93;;;17.20;90.90;;;;;;5118109;27;20122;-50
2024/03/01 07:18:49;;;;;;;19.73;4.78;;;17.20;91.00;;;;;;5105073;27;20199;-52
2024/03/01 07:21:16;;;;;;;21.73;4.10;;;17.20;90.80;;;;;;5096306;28;20068;-50
2024/03/01 07:23:42;;;;;;;13.23;3.70;;;17.20;90.80;;;;;;5102746;28;20068;-49
2024/03/01 07:26:09;;;;;;;14.80;4.18;;;17.20;90.70;;;;;;5091051;28;20068;-52
2024/03/01 07:28:35;;;;;;;12.45;4.03;;;17.20;90.80;;;;;;5093334;28;20530;-50
2024/03/01 07:31:03;;;;;;;14.73;4.35;;;17.10;90.70;;;;;;5102166;27;20076;-51
2024/03/01 07:33:30;;;;;;;18.60;4.53;;;17.20;90.80;;;;;;5106603;27;20067;-50
2024/03/01 07:35:57;;;;;;;16.35;5.07;;;17.10;90.70;;;;;;5096469;28;20114;-52
2024/03/01 07:38:23;;;;;;;16.50;4.18;;;17.10;90.60;;;;;;5105985;27;20115;-50
2024/03/01 07:40:50;;;;;;;17.80;4.38;;;17.10;90.80;;;;;;5099543;27;20452;-52
2024/03/01 07:43:16;;;;;;;14.98;4.30;;;17.20;90.70;;;;;;5110177;27;20072;-50
2024/03/01 07:45:43;;;;;;;9.32;3.60;;;17.10;90.80;;;;;;5107251;27;20114;-49
2024/03/01 07:48:09;;;;;;;14.20;4.13;;;17.10;90.80;;;;;;5113333;27;20076;-50
2024/03/01 07:50:37;;;;;;;12.50;3.90;;;17.10;90.80;;;;;;5132033;27;20076;-51
2024/03/01 07:53:04;;;;;;;13.18;4.10;;;17.10;90.80;;;;;;5130578;27;20162;-53
2024/03/01 07:55:30;;;;;;;14.95;4.38;;;17.00;91.00;;;;;;5110815;27;20068;-50
2024/03/01 07:57:57;;;;;;;10.50;3.90;;;16.90;90.90;;;;;;5111469;27;20107;-51
2024/03/01 08:00:23;;;;;;;13.65;4.00;;;16.90;91.10;;;;;;5111851;27;20452;-53
2024/03/01 08:03:07;;;;;;;14.95;3.95;;;16.90;91.30;;;;;;5101906;27;20518;-54
2024/03/01 08:05:42;;;;;;;14.02;4.18;;;16.90;91.30;;;;;;5124149;27;20068;-51
2024/03/01 08:08:09;;;;;;;14.38;3.80;;;16.80;91.60;;;;;;5092982;28;20187;-50
2024/03/01 08:10:44;;;;;;;15.20;3.50;;;16.80;91.40;;;;;;5108352;27;20113;-53
2024/03/01 08:13:13;;;;;;;17.83;4.38;;;16.80;91.40;;;;;;5099770;27;20067;-49
2024/03/01 08:15:40;;;;;;;17.52;4.32;;;16.80;91.40;;;;;;5102487;27;20151;-50
2024/03/01 08:18:24;;;;;;;17.00;4.40;;;16.70;91.60;;;;;;5090985;28;20109;-49
2024/03/01 08:21:05;;;;;;;18.63;3.78;;;16.60;91.70;;;;;;5107800;27;20098;-50
2024/03/01 08:23:41;;;;;;;14.93;4.00;;;16.50;91.90;;;;;;5103535;28;20091;-52
2024/03/01 08:26:16;;;;;;;11.45;4.10;;;16.50;92.00;;;;;;5096298;27;20113;-51
2024/03/01 08:28:44;;;;;;;14.13;4.20;;;16.40;92.20;;;;;;5100905;28;20601;-52
2024/03/01 08:31:35;;;;;;;17.27;4.07;;;16.40;92.30;;;;;;5104646;27;20084;-50
2024/03/01 08:34:08;;;;;;;13.07;4.45;;;16.40;92.10;;;;;;5108504;27;20141;-46
2024/03/01 08:36:37;;;;;;;15.63;4.20;;;16.40;92.20;;;;;;5095214;27;20638;-49
2024/03/01 08:39:15;;;;;;;10.48;3.65;;;16.50;91.90;;;;;;5102266;27;20127;-46
2024/03/01 08:41:47;;;;;;;16.15;3.97;;;16.50;92.10;;;;;;5091914;28;20161;-46
2024/03/01 08:44:35;;;;;;;16.92;5.35;;;16.50;91.70;;;;;;5102855;28;20072;-49
2024/03/01 08:47:02;;;;;;;14.20;3.90;;;16.40;92.00;;;;;;5109151;28;20236;-47
2024/03/01 08:49:47;;;;;;;18.90;4.13;;;16.30;92.20;;;;;;5106969;28;20124;-47
2024/03/01 08:52:28;;;;;;;10.50;3.75;;;16.30;92.60;;;;;;5109648;28;20079;-49
2024/03/01 08:55:03;;;;;;;14.13;4.05;;;16.50;92.30;;;;;;5107496;28;20510;-50
2024/03/01 08:57:30;;;;;;;14.32;3.92;;;16.50;92.20;;;;;;5108844;28;20068;-50
2024/03/01 08:59:57;;;;;;;14.15;3.75;;;16.50;92.20;;;;;;5110101;28;20111;-46
2024/03/01 09:02:48;;;;;;;14.27;4.40;;;16.50;92.00;;;;;;5112145;28;20094;-46
2024/03/01 09:05:17;;;;;;;14.32;4.07;;;16.30;92.30;;;;;;5105859;28;20606;-50
2024/03/01 09:07:44;;;;;;;14.18;3.95;;;16.30;92.60;;;;;;5106490;28;20090;-47
2024/03/01 09:10:22;;;;;;;13.55;4.25;;;16.20;92.90;;;;;;5111532;28;20154;-47
2024/03/01 09:12:49;;;;;;;10.73;4.15;;;16.20;93.10;;;;;;5107729;28;20587;-47
2024/03/01 09:15:19;;;;;;;20.80;4.60;;;16.30;92.90;;;;;;5104334;28;20099;-48
2024/03/01 09:17:46;;;;;;;22.08;4.75;;;16.30;92.80;;;;;;5115385;28;20112;-48
2024/03/01 09:20:32;;;;;;;10.45;4.10;;;16.30;92.80;;;;;;5110611;28;20068;-46
2024/03/01 09:22:59;;;;;;;12.32;3.97;;;16.20;93.00;;;;;;5107237;28;20075;-46
2024/03/01 09:25:53;;;;;;;14.10;4.00;;;16.20;93.20;;;;;;5092327;28;20080;-47
2024/03/01 09:28:24;;;;;;;12.77;3.70;;;16.20;93.20;;;;;;5108099;27;20073;-46
2024/03/01 09:30:52;;;;;;;19.27;4.30;;;16.20;93.20;;;;;;5109298;28;20438;-50
2024/03/01 09:33:20;;;;;;;11.80;4.65;;;16.30;93.30;;;;;;5110750;28;20064;-49
2024/03/01 09:35:51;;;;;;;15.07;4.40;;;16.30;93.10;;;;;;5111586;27;20064;-47
2024/03/01 09:38:19;;;;;;;13.63;4.28;;;16.30;93.00;;;;;;5109668;28;20104;-46
2024/03/01 09:40:53;;;;;;;13.48;3.97;;;16.20;93.00;;;;;;5110530;27;20104;-54
2024/03/01 09:43:44;;;;;;;20.73;4.78;;;16.10;93.00;;;;;;5111661;27;20106;-45
2024/03/01 09:46:36;;;;;;;11.38;4.40;;;16.10;93.50;;;;;;5101957;28;20091;-47
2024/03/01 09:49:35;;;;;;;11.75;4.15;;;15.90;93.60;;;;;;5108165;27;20087;-47
2024/03/01 09:52:23;;;;;;;39.15;19.88;;;15.80;93.90;;;;;;5095893;27;20076;-47
2024/03/01 09:55:07;;;;;;;19.20;10.90;;;15.80;94.40;;;;;;5120593;27;20076;-45
2024/03/01 09:58:07;;;;;;;10.30;4.70;;;15.90;93.80;;;;;;5102252;27;20071;-46
2024/03/01 10:00:40;;;;;;;15.70;4.28;;;16.00;93.60;;;;;;5098103;27;20571;-45
2024/03/01 10:03:20;;;;;;;20.05;4.70;;;15.90;93.90;;;;;;5101360;27;20464;-46
2024/03/01 10:05:59;;;;;;;19.83;4.97;;;15.80;94.30;;;;;;5109511;27;20093;-48
2024/03/01 10:08:50;;;;;;;20.00;4.68;;;15.70;94.50;;;;;;5103000;27;20557;-46
2024/03/01 10:11:36;;;;;;;15.40;4.78;;;15.70;94.40;;;;;;5107934;27;20078;-45
2024/03/01 10:14:21;;;;;;;17.08;4.60;;;15.80;94.20;;;;;;5110486;28;20128;-47
2024/03/01 10:17:12;;;;;;;17.67;5.07;;;15.70;94.60;;;;;;5105279;27;20111;-47
2024/03/01 10:19:57;;;;;;;19.73;6.82;;;15.50;95.00;;;;;;5108867;27;20179;-47
2024/03/01 10:22:58;;;;;;;25.42;8.10;;;15.50;95.00;;;;;;5099496;28;20442;-46
2024/03/01 10:25:40;;;;;;;31.45;9.45;;;15.50;95.10;;;;;;5096101;27;20072;-47
2024/03/01 10:28:44;;;;;;;26.10;8.40;;;15.50;95.30;;;;;;5091859;27;20073;-47
2024/03/01 10:31:36;;;;;;;26.60;9.32;;;15.50;95.30;;;;;;5112883;27;20071;-49
2024/03/01 10:34:27;;;;;;;21.67;7.57;;;15.50;95.20;;;;;;5103104;27;20114;-49
2024/03/01 10:36:55;;;;;;;24.02;7.35;;;15.40;95.30;;;;;;5091324;28;20149;-49
2024/03/01 10:39:37;;;;;;;24.80;7.82;;;15.40;95.20;;;;;;5102057;27;20463;-48
2024/03/01 10:42:25;;;;;;;25.85;7.35;;;15.40;95.60;;;;;;5092117;28;20095;-46
2024/03/01 10:45:06;;;;;;;28.60;7.53;;;15.40;95.40;;;;;;5096917;28;20080;-47
2024/03/01 10:47:34;;;;;;;29.95;8.63;;;15.30;95.30;;;;;;5092909;27;20076;-51
2024/03/01 10:50:13;;;;;;;22.15;6.97;;;15.20;95.80;;;;;;5100491;28;20068;-47
2024/03/01 10:52:45;;;;;;;24.08;7.45;;;15.10;95.70;;;;;;5102790;28;20151;-47
2024/03/01 10:55:20;;;;;;;22.25;6.28;;;15.00;95.30;;;;;;5101600;28;20068;-47
2024/03/01 10:57:50;;;;;;;16.15;6.25;;;15.00;95.60;;;;;;5092313;28;20099;-47
2024/03/01 11:00:23;;;;;;;12.73;5.20;;;15.10;95.20;;;;;;5096491;27;20159;-48
2024/03/01 11:03:39;;;;;;;12.82;4.43;;;15.00;94.90;;;;;;5095527;27;20530;-48
2024/03/01 11:06:18;;;;;;;8.65;4.38;;;15.00;94.80;;;;;;5065633;28;20579;-51
2024/03/01 11:09:12;;;;;;;9.50;4.20;;;15.00;94.90;;;;;;5109376;27;20071;-46
2024/03/01 11:12:01;;;;;;;12.77;4.82;;;15.10;94.70;;;;;;5095393;27;20161;-45
2024/03/01 11:14:32;;;;;;;13.75;4.07;;;15.00;94.70;;;;;;5096200;27;20084;-46
2024/03/01 11:17:00;;;;;;;11.23;4.38;;;15.00;94.70;;;;;;5093028;27;20496;-47
2024/03/01 11:19:31;;;;;;;16.85;4.82;;;15.00;95.00;;;;;;5107670;27;20103;-46
2024/03/01 11:22:19;;;;;;;11.48;4.00;;;14.90;94.90;;;;;;5111573;27;20072;-46
2024/03/01 11:24:59;;;;;;;8.40;3.75;;;14.90;94.90;;;;;;5104439;28;20060;-53
2024/03/01 11:27:29;;;;;;;9.18;4.13;;;14.80;95.10;;;;;;5091908;28;20068;-47
2024/03/01 11:30:09;;;;;;;11.52;4.55;;;14.60;95.30;;;;;;5096773;28;20074;-47
2024/03/01 11:32:45;;;;;;;12.75;5.15;;;14.60;95.60;;;;;;5109688;28;20074;-50
2024/03/01 11:35:27;;;;;;;13.20;4.60;;;14.50;95.70;;;;;;5091296;28;20072;-47
2024/03/01 11:37:57;;;;;;;14.40;4.35;;;14.50;95.90;;;;;;5101416;28;20099;-46
2024/03/01 11:40:47;;;;;;;15.70;4.90;;;14.40;96.20;;;;;;5109800;27;20076;-46
2024/03/01 11:43:40;;;;;;;11.73;4.47;;;14.30;96.60;;;;;;5099236;27;20077;-47
2024/03/01 11:46:32;;;;;;;15.57;5.05;;;14.20;96.60;;;;;;5096910;28;20185;-47
2024/03/01 11:49:17;;;;;;;15.13;5.70;;;14.20;96.80;;;;;;5092157;28;20079;-47
2024/03/01 11:52:10;;;;;;;13.73;4.90;;;14.10;97.00;;;;;;5090844;28;20163;-50
2024/03/01 11:54:40;;;;;;;15.27;4.97;;;14.00;97.20;;;;;;5102353;28;20076;-48
2024/03/01 11:57:31;;;;;;;13.15;5.32;;;13.90;97.50;;;;;;5109332;27;20144;-46
2024/03/01 12:00:03;;;;;;;14.57;5.40;;;13.90;97.60;;;;;;5109746;27;20080;-47
2024/03/01 12:02:54;;;;;;;13.55;5.28;;;13.80;97.90;;;;;;5116901;27;20406;-48
2024/03/01 12:05:45;;;;;;;13.77;5.13;;;13.80;98.30;;;;;;5092397;28;20087;-47
2024/03/01 12:08:33;;;;;;;21.23;5.15;;;13.60;98.40;;;;;;5105795;27;20080;-46
2024/03/01 12:11:02;;;;;;;11.68;5.15;;;13.60;98.80;;;;;;5124178;27;20098;-49
2024/03/01 12:13:36;;;;;;;15.77;5.50;;;13.60;99.00;;;;;;5106990;27;20076;-46
2024/03/01 12:16:21;;;;;;;15.57;5.70;;;13.60;99.30;;;;;;5088877;28;20117;-46
2024/03/01 12:19:03;;;;;;;15.20;6.07;;;13.60;99.50;;;;;;5096625;28;20123;-45
2024/03/01 12:21:56;;;;;;;13.48;5.68;;;13.70;99.50;;;;;;5106745;28;20076;-48
2024/03/01 12:24:30;;;;;;;14.77;5.82;;;13.80;99.40;;;;;;5099214;28;20068;-47
2024/03/01 12:27:17;;;;;;;16.23;6.07;;;13.60;99.60;;;;;;5097213;28;20072;-48
2024/03/01 12:30:01;;;;;;;;;;;13.60;99.90;;;;;;5102610;27;20075;-46
2024/03/01 12:33:05;;;;;;;13.88;6.47;;;13.50;99.90;;;;;;5104729;28;20050;-47
2024/03/01 12:35:51;;;;;;;15.32;6.40;;;13.60;99.90;;;;;;5114867;27;20192;-47
2024/03/01 12:38:18;;;;;;;10.07;4.90;;;13.60;99.90;;;;;;5089847;28;20649;-46
2024/03/01 12:41:04;;;;;;;22.85;5.72;;;13.60;99.90;;;;;;5103174;28;20518;-46
2024/03/01 12:43:54;;;;;;;15.23;6.45;;;13.60;99.90;;;;;;5128624;27;20142;-47
2024/03/01 12:46:45;;;;;;;21.67;5.93;;;13.60;99.90;;;;;;5107293;28;20129;-47
2024/03/01 12:49:37;;;;;;;16.58;5.57;;;13.60;99.90;;;;;;5103438;28;20540;-47
2024/03/01 12:52:41;;;;;;;14.93;6.07;;;13.60;99.90;;;;;;5112027;27;20146;-47
2024/03/01 12:55:17;;;;;;;11.32;5.15;;;13.60;99.90;;;;;;5034612;28;20088;-47
2024/03/01 12:57:43;;;;;;;10.88;5.50;;;13.70;99.90;;;;;;5029643;28;20176;-46
2024/03/01 13:00:19;;;;;;;11.10;5.53;;;13.60;99.90;;;;;;5066068;28;20085;-47
2024/03/01 13:02:54;;;;;;;14.07;6.07;;;13.50;99.90;;;;;;5105556;28;20064;-47